Time;durP1;ratioP1;P1;durP2;ratioP2;P2;SDS_P1;SDS_P2;PMS_P1;PMS_P2;Temp;Humidity;BMP_temperature;BMP_pressure;BME280_temperature;BME280_humidity;BME280_pressure;Samples;Min_cycle;Max_cycle;Signal;HPM_P1;HPM_P2
2021/07/27 00:01:44;;;;;;;4.50;4.10;;;20.00;99.90;;;;;;5054997;28;20304;-69
2021/07/27 00:04:14;;;;;;;4.77;4.30;;;20.00;99.90;;;;;;5049084;28;20661;-69
2021/07/27 00:06:42;;;;;;;4.47;4.07;;;20.00;99.90;;;;;;5046873;28;20297;-70
2021/07/27 00:09:10;;;;;;;4.20;3.80;;;19.90;99.90;;;;;;5049145;28;20235;-69
2021/07/27 00:11:41;;;;;;;4.90;4.17;;;19.90;99.90;;;;;;5052112;28;20265;-69
2021/07/27 00:14:09;;;;;;;4.80;4.30;;;19.90;99.90;;;;;;5048361;28;20226;-70
2021/07/27 00:16:37;;;;;;;4.67;4.23;;;19.90;99.90;;;;;;5047647;28;20239;-70
2021/07/27 00:19:06;;;;;;;5.33;4.53;;;19.90;99.90;;;;;;5048598;28;20296;-70
2021/07/27 00:21:34;;;;;;;4.47;3.93;;;19.80;99.90;;;;;;5047227;28;20250;-69
2021/07/27 00:24:02;;;;;;;4.20;3.80;;;19.80;99.90;;;;;;5047735;28;20236;-69
2021/07/27 00:26:30;;;;;;;4.17;3.83;;;19.80;99.90;;;;;;5047787;28;20836;-70
2021/07/27 00:29:00;;;;;;;4.73;4.33;;;19.80;99.90;;;;;;5048563;28;20726;-69
2021/07/27 00:31:29;;;;;;;4.63;4.23;;;19.80;99.90;;;;;;5059062;28;20246;-70
2021/07/27 00:33:57;;;;;;;6.23;5.10;;;19.80;99.90;;;;;;5067966;28;20238;-70
2021/07/27 00:36:25;;;;;;;5.83;5.23;;;19.80;99.90;;;;;;5056534;28;20242;-70
2021/07/27 00:38:53;;;;;;;5.87;5.37;;;19.80;99.90;;;;;;5048091;28;20239;-69
2021/07/27 00:41:21;;;;;;;4.90;4.37;;;19.80;99.90;;;;;;5047539;28;20239;-69
2021/07/27 00:43:49;;;;;;;5.73;4.60;;;19.80;99.90;;;;;;5047840;28;20743;-70
2021/07/27 00:46:18;;;;;;;6.03;5.43;;;19.80;99.90;;;;;;5047737;28;20272;-69
2021/07/27 00:48:47;;;;;;;9.20;5.80;;;19.80;99.90;;;;;;5047866;28;20238;-70
2021/07/27 00:51:16;;;;;;;5.63;5.03;;;19.80;99.90;;;;;;5057038;28;20245;-69
2021/07/27 00:53:44;;;;;;;6.90;5.50;;;19.70;99.90;;;;;;5049613;28;20231;-69
2021/07/27 00:56:12;;;;;;;8.07;5.80;;;19.70;99.90;;;;;;5048924;28;20308;-70
2021/07/27 00:58:40;;;;;;;7.33;5.50;;;19.70;99.90;;;;;;5047755;28;20236;-70
2021/07/27 01:01:08;;;;;;;6.97;5.77;;;19.70;99.90;;;;;;5056335;28;20250;-70
2021/07/27 01:03:39;;;;;;;5.90;5.30;;;19.60;99.90;;;;;;5066921;28;20237;-70
2021/07/27 01:06:07;;;;;;;7.57;6.87;;;19.60;99.90;;;;;;5067344;28;20234;-69
2021/07/27 01:08:36;;;;;;;6.83;6.03;;;19.60;99.90;;;;;;5067637;28;20547;-71
2021/07/27 01:11:05;;;;;;;6.47;5.80;;;19.60;99.90;;;;;;5058962;28;20272;-70
2021/07/27 01:13:33;;;;;;;7.37;5.90;;;19.60;99.90;;;;;;5046961;28;20345;-70
2021/07/27 01:16:05;;;;;;;6.37;5.80;;;19.60;99.90;;;;;;5055177;28;20238;-70
2021/07/27 01:18:39;;;;;;;7.20;6.50;;;19.60;99.90;;;;;;5067606;28;20242;-69
2021/07/27 01:37:50;;;;;;;7.23;6.53;;;19.50;99.90;;;;;;5067530;28;20259;-70
2021/07/27 01:40:20;;;;;;;8.60;7.50;;;19.50;99.90;;;;;;5064910;28;20704;-69
2021/07/27 01:42:47;;;;;;;8.33;7.30;;;19.50;99.90;;;;;;5046178;28;20238;-69
2021/07/27 01:45:21;;;;;;;8.50;7.70;;;19.50;99.90;;;;;;5050455;28;20234;-69
2021/07/27 01:47:49;;;;;;;8.40;7.57;;;19.50;99.90;;;;;;5051171;28;20233;-70
2021/07/27 01:50:17;;;;;;;9.53;7.70;;;19.50;99.90;;;;;;5051873;28;20242;-69
2021/07/27 01:52:49;;;;;;;9.63;8.73;;;19.50;99.90;;;;;;5049740;28;20292;-69
2021/07/27 01:55:20;;;;;;;8.07;7.27;;;19.40;99.90;;;;;;5052971;28;20303;-69
2021/07/27 01:57:49;;;;;;;8.37;7.63;;;19.40;99.90;;;;;;5070710;28;20732;-70
2021/07/27 02:00:18;;;;;;;8.87;8.07;;;19.40;99.90;;;;;;5069006;28;20313;-69
2021/07/27 02:02:47;;;;;;;8.93;8.10;;;19.40;99.90;;;;;;5049148;28;20265;-69
2021/07/27 02:05:16;;;;;;;9.10;8.20;;;19.40;99.90;;;;;;5050899;28;20235;-70
2021/07/27 02:07:56;;;;;;;8.50;7.60;;;19.40;99.90;;;;;;5051162;28;20315;-69
2021/07/27 02:10:27;;;;;;;8.70;7.87;;;19.40;99.90;;;;;;5053045;28;20613;-70
2021/07/27 02:13:01;;;;;;;8.77;7.90;;;19.40;99.90;;;;;;5063606;28;20239;-70
2021/07/27 02:15:38;;;;;;;8.47;7.67;;;19.40;99.90;;;;;;5053643;28;20245;-70
2021/07/27 02:18:06;;;;;;;9.57;8.20;;;19.40;99.90;;;;;;5070753;28;20229;-69
2021/07/27 02:20:35;;;;;;;9.20;8.40;;;19.40;99.90;;;;;;5069818;28;20671;-69
2021/07/27 02:23:04;;;;;;;8.10;7.27;;;19.40;99.90;;;;;;5070462;28;20903;-70
2021/07/27 02:25:33;;;;;;;9.03;8.13;;;19.40;99.90;;;;;;5070325;28;20244;-70
2021/07/27 02:28:02;;;;;;;8.40;7.70;;;19.40;99.90;;;;;;5070606;28;20254;-70
2021/07/27 02:30:33;;;;;;;8.93;8.13;;;19.40;99.90;;;;;;5070305;28;20749;-70
2021/07/27 02:33:01;;;;;;;8.87;8.10;;;19.40;99.90;;;;;;5069964;28;20237;-70
2021/07/27 02:35:29;;;;;;;9.80;8.90;;;19.30;99.90;;;;;;5066555;28;20247;-70
2021/07/27 02:37:57;;;;;;;9.20;8.40;;;19.30;99.90;;;;;;5050288;28;20238;-70
2021/07/27 02:40:26;;;;;;;9.20;8.30;;;19.30;99.90;;;;;;5050086;28;20520;-69
2021/07/27 02:42:56;;;;;;;9.40;8.40;;;19.30;99.90;;;;;;5049789;28;20285;-70
2021/07/27 02:45:24;;;;;;;9.20;8.30;;;19.30;99.90;;;;;;5052645;28;20344;-69
2021/07/27 02:47:52;;;;;;;9.83;8.90;;;19.30;99.90;;;;;;5070116;28;20246;-70
2021/07/27 02:50:21;;;;;;;9.90;8.90;;;19.30;99.90;;;;;;5067857;28;20241;-70
2021/07/27 02:52:49;;;;;;;9.10;8.30;;;19.20;99.90;;;;;;5049830;28;20315;-70
2021/07/27 02:55:17;;;;;;;8.90;8.07;;;19.20;99.90;;;;;;5049756;28;20237;-69
2021/07/27 02:57:45;;;;;;;8.83;7.80;;;19.20;99.90;;;;;;5050014;28;20736;-69
2021/07/27 03:00:16;;;;;;;9.17;8.27;;;19.20;99.90;;;;;;5051491;28;20728;-69
2021/07/27 03:02:45;;;;;;;9.70;8.80;;;19.20;99.90;;;;;;5069702;28;20303;-70
2021/07/27 03:05:16;;;;;;;9.33;8.43;;;19.20;99.90;;;;;;5068261;28;20256;-69
2021/07/27 03:07:51;;;;;;;9.53;8.57;;;19.30;99.90;;;;;;5050006;28;20282;-70
2021/07/27 03:10:20;;;;;;;10.03;9.10;;;19.20;99.90;;;;;;5049419;28;20296;-70
2021/07/27 03:12:49;;;;;;;10.43;9.43;;;19.20;99.90;;;;;;5047640;28;20238;-70
2021/07/27 03:15:19;;;;;;;9.10;8.20;;;19.20;99.90;;;;;;5049873;28;20300;-69
2021/07/27 03:17:48;;;;;;;9.63;8.83;;;19.20;99.90;;;;;;5068308;28;20241;-69
2021/07/27 03:20:17;;;;;;;10.37;9.20;;;19.20;99.90;;;;;;5066480;28;20287;-69
2021/07/27 03:22:45;;;;;;;9.83;8.67;;;19.30;99.90;;;;;;5047883;28;20250;-69
2021/07/27 03:25:16;;;;;;;9.30;8.50;;;19.30;99.90;;;;;;5049750;28;20728;-69
2021/07/27 03:27:45;;;;;;;10.37;9.37;;;19.20;99.90;;;;;;5059456;28;20240;-69
2021/07/27 03:30:14;;;;;;;10.57;9.47;;;19.20;99.90;;;;;;5049491;28;20239;-70
2021/07/27 03:32:44;;;;;;;10.10;9.10;;;19.20;99.90;;;;;;5067748;28;20320;-70
2021/07/27 03:35:14;;;;;;;9.23;8.43;;;19.20;99.90;;;;;;5067306;28;20238;-70
2021/07/27 03:37:43;;;;;;;9.83;9.00;;;19.30;99.90;;;;;;5047895;28;20250;-69
2021/07/27 03:40:12;;;;;;;11.07;9.87;;;19.30;99.90;;;;;;5048920;28;20301;-69
2021/07/27 03:42:40;;;;;;;9.80;8.80;;;19.30;99.90;;;;;;5067392;28;20246;-70
2021/07/27 03:45:09;;;;;;;9.43;8.50;;;19.30;99.90;;;;;;5061093;28;20597;-70
2021/07/27 03:47:37;;;;;;;9.83;8.83;;;19.30;99.90;;;;;;5051444;28;20249;-70
2021/07/27 03:50:08;;;;;;;9.60;8.67;;;19.20;99.90;;;;;;5047263;28;20249;-70
2021/07/27 03:52:36;;;;;;;10.97;9.43;;;19.20;99.90;;;;;;5046990;28;20238;-70
2021/07/27 03:55:05;;;;;;;10.57;9.57;;;19.20;99.90;;;;;;5047761;28;20307;-69
2021/07/27 03:57:33;;;;;;;10.97;9.90;;;19.30;99.90;;;;;;5047369;28;20239;-70
2021/07/27 04:00:01;;;;;;;10.40;9.27;;;19.30;99.90;;;;;;5047605;28;20242;-70
2021/07/27 04:02:32;;;;;;;10.90;8.90;;;19.20;99.90;;;;;;5027140;28;20768;-70
2021/07/27 04:05:01;;;;;;;10.30;9.03;;;19.30;99.90;;;;;;5027388;28;20243;-70
2021/07/27 04:07:30;;;;;;;10.10;9.20;;;19.30;99.90;;;;;;5046446;28;20326;-69
2021/07/27 04:09:58;;;;;;;10.10;9.10;;;19.20;99.90;;;;;;5047465;28;20714;-70
2021/07/27 04:12:27;;;;;;;9.40;8.50;;;19.30;99.90;;;;;;5046173;28;20535;-70
2021/07/27 04:14:55;;;;;;;10.60;9.50;;;19.30;99.90;;;;;;5047476;28;20243;-70
2021/07/27 04:17:23;;;;;;;9.80;8.90;;;19.30;99.90;;;;;;5052358;28;20333;-70
2021/07/27 04:19:53;;;;;;;11.00;10.00;;;19.30;99.90;;;;;;5048296;28;20261;-70
2021/07/27 04:22:21;;;;;;;9.97;9.07;;;19.30;99.90;;;;;;5047750;28;20234;-70
2021/07/27 04:24:51;;;;;;;10.97;9.97;;;19.30;99.90;;;;;;5047061;28;20233;-70
2021/07/27 04:27:20;;;;;;;10.70;9.70;;;19.30;99.90;;;;;;5047069;28;20230;-69
2021/07/27 04:29:49;;;;;;;12.17;11.03;;;19.30;99.90;;;;;;5046828;28;20241;-69
2021/07/27 04:32:17;;;;;;;11.47;9.53;;;19.30;99.90;;;;;;5063095;28;20315;-70
2021/07/27 04:34:45;;;;;;;10.47;9.27;;;19.30;99.90;;;;;;5065255;28;20242;-69
2021/07/27 04:37:13;;;;;;;9.67;8.67;;;19.30;99.90;;;;;;5053700;28;20449;-69
2021/07/27 04:39:41;;;;;;;11.83;10.60;;;19.40;99.90;;;;;;5046983;28;20504;-70
2021/07/27 04:42:13;;;;;;;11.07;9.97;;;19.40;99.90;;;;;;5063356;28;20320;-70
2021/07/27 04:44:41;;;;;;;11.57;10.40;;;19.40;99.90;;;;;;5066617;28;20238;-69
2021/07/27 04:47:10;;;;;;;10.80;9.77;;;19.50;99.90;;;;;;5066325;28;20579;-70
2021/07/27 04:49:38;;;;;;;12.13;10.20;;;19.50;99.90;;;;;;5066794;28;20291;-70
2021/07/27 04:52:06;;;;;;;11.90;10.80;;;19.60;99.90;;;;;;5049514;28;20579;-70
2021/07/27 04:54:50;;;;;;;11.37;9.97;;;19.60;99.90;;;;;;5046566;28;20640;-70
2021/07/27 04:57:20;;;;;;;11.83;10.73;;;19.60;99.90;;;;;;5064654;28;20237;-70
2021/07/27 04:59:48;;;;;;;12.03;10.13;;;19.70;99.90;;;;;;5066283;28;20597;-69
2021/07/27 05:02:16;;;;;;;13.00;11.77;;;19.70;99.90;;;;;;5047725;28;20304;-70
2021/07/27 05:04:44;;;;;;;14.20;11.67;;;19.70;99.90;;;;;;5046806;28;20325;-70
2021/07/27 05:07:13;;;;;;;12.17;11.00;;;19.70;99.90;;;;;;5050623;28;20603;-70
2021/07/27 05:09:41;;;;;;;13.83;11.40;;;19.60;99.90;;;;;;5046537;28;20251;-70
2021/07/27 05:12:09;;;;;;;12.57;11.37;;;19.60;99.90;;;;;;5045926;28;20265;-70
2021/07/27 05:14:39;;;;;;;14.30;12.80;;;19.70;99.90;;;;;;5046275;28;20707;-70
2021/07/27 05:17:08;;;;;;;12.53;11.33;;;19.70;99.90;;;;;;5063093;28;20821;-70
2021/07/27 05:19:37;;;;;;;14.27;12.93;;;19.70;99.90;;;;;;5065511;28;20604;-70
2021/07/27 05:22:05;;;;;;;15.73;14.13;;;19.90;99.90;;;;;;5065209;28;20295;-69
2021/07/27 05:24:33;;;;;;;13.60;12.20;;;20.00;99.90;;;;;;5066162;28;20774;-69
2021/07/27 05:27:01;;;;;;;15.87;14.33;;;20.10;99.90;;;;;;5065878;28;20235;-70
2021/07/27 05:29:29;;;;;;;16.40;11.83;;;20.20;99.90;;;;;;5066041;28;20237;-70
2021/07/27 05:31:59;;;;;;;14.47;13.10;;;20.30;99.90;;;;;;5065838;28;20272;-70
2021/07/27 05:34:27;;;;;;;14.30;12.90;;;20.50;99.90;;;;;;5065649;28;20234;-70
2021/07/27 05:36:55;;;;;;;14.93;13.40;;;20.60;99.90;;;;;;5050446;28;20280;-70
2021/07/27 05:39:23;;;;;;;13.83;12.43;;;20.70;99.90;;;;;;5046068;28;20246;-70
2021/07/27 05:41:51;;;;;;;13.73;11.90;;;20.80;99.90;;;;;;5043965;28;20243;-70
2021/07/27 05:44:23;;;;;;;14.17;12.20;;;21.00;99.90;;;;;;5045805;28;20234;-69
2021/07/27 05:46:53;;;;;;;12.70;11.33;;;21.20;99.90;;;;;;5060177;28;20237;-70
2021/07/27 05:49:24;;;;;;;13.73;12.43;;;21.20;99.90;;;;;;5066180;28;20260;-70
2021/07/27 05:51:54;;;;;;;15.07;13.30;;;21.10;99.90;;;;;;5050842;28;20451;-70
2021/07/27 05:54:23;;;;;;;16.30;14.60;;;21.30;99.90;;;;;;5045562;28;20239;-70
2021/07/27 05:56:52;;;;;;;16.27;14.67;;;21.40;99.90;;;;;;5060285;28;20235;-70
2021/07/27 05:59:20;;;;;;;15.87;14.27;;;21.50;99.90;;;;;;5065158;28;20238;-70
2021/07/27 06:01:49;;;;;;;13.43;12.13;;;21.60;99.90;;;;;;5047876;28;20268;-71
2021/07/27 06:04:18;;;;;;;14.10;12.60;;;21.80;99.90;;;;;;5045246;28;20617;-71
2021/07/27 06:06:48;;;;;;;15.50;13.80;;;21.80;99.90;;;;;;5042031;28;20770;-71
2021/07/27 06:09:16;;;;;;;16.50;14.90;;;21.70;99.90;;;;;;5045324;28;20250;-71
2021/07/27 06:11:51;;;;;;;15.90;14.17;;;21.70;99.90;;;;;;5059235;28;20246;-71
2021/07/27 06:14:19;;;;;;;15.97;14.27;;;21.60;99.90;;;;;;5065400;28;20741;-72
2021/07/27 06:16:47;;;;;;;14.43;12.87;;;21.60;99.90;;;;;;5051363;28;20241;-71
2021/07/27 06:19:15;;;;;;;16.37;14.63;;;21.70;99.90;;;;;;5041894;28;20246;-72
2021/07/27 06:21:43;;;;;;;15.63;14.13;;;21.70;99.90;;;;;;5031761;28;20273;-72
2021/07/27 06:24:13;;;;;;;16.17;14.57;;;21.80;99.90;;;;;;5036051;28;20254;-71
2021/07/27 06:26:41;;;;;;;15.10;13.50;;;21.80;99.90;;;;;;5046597;28;20239;-72
2021/07/27 06:29:09;;;;;;;17.03;15.23;;;21.70;99.90;;;;;;5039429;28;20251;-72
2021/07/27 06:31:38;;;;;;;15.47;13.90;;;21.80;99.90;;;;;;5043693;28;20244;-72
2021/07/27 06:34:06;;;;;;;15.13;13.63;;;21.80;99.90;;;;;;5036996;28;20615;-72
2021/07/27 06:36:34;;;;;;;15.83;13.33;;;21.80;99.90;;;;;;5045236;28;20245;-72
2021/07/27 06:39:02;;;;;;;17.57;15.80;;;21.80;99.90;;;;;;5047598;28;20238;-72
2021/07/27 06:41:32;;;;;;;17.77;15.57;;;21.70;99.90;;;;;;5044733;28;20263;-72
2021/07/27 06:44:00;;;;;;;18.43;15.87;;;21.80;99.90;;;;;;5037498;28;20243;-72
2021/07/27 06:46:29;;;;;;;14.37;12.80;;;21.90;99.90;;;;;;5040098;28;20250;-72
2021/07/27 06:48:58;;;;;;;20.00;14.93;;;22.10;99.90;;;;;;5044713;28;20242;-71
2021/07/27 06:51:27;;;;;;;17.13;15.30;;;22.10;99.90;;;;;;5045954;28;20246;-71
2021/07/27 06:53:57;;;;;;;16.90;15.13;;;22.10;99.90;;;;;;5047111;28;20259;-70
2021/07/27 06:56:27;;;;;;;19.37;17.27;;;22.10;99.90;;;;;;5041838;28;20251;-71
2021/07/27 06:58:56;;;;;;;17.30;15.20;;;22.00;99.90;;;;;;5040082;28;20707;-70
2021/07/27 07:01:24;;;;;;;15.10;13.47;;;22.00;99.90;;;;;;5041006;28;20779;-71
2021/07/27 07:03:53;;;;;;;16.40;14.70;;;22.20;99.90;;;;;;5031515;28;20534;-71
2021/07/27 07:06:21;;;;;;;18.10;15.90;;;22.20;99.90;;;;;;5038188;28;21075;-71
2021/07/27 07:08:49;;;;;;;16.67;15.07;;;22.10;99.90;;;;;;5040452;28;20346;-71
2021/07/27 07:11:17;;;;;;;16.20;13.30;;;22.00;99.90;;;;;;5043372;28;20329;-71
2021/07/27 07:13:48;;;;;;;18.53;16.50;;;21.90;99.90;;;;;;5040368;28;20948;-71
2021/07/27 07:16:18;;;;;;;18.27;15.53;;;21.90;99.90;;;;;;5040408;28;20243;-71
2021/07/27 07:18:46;;;;;;;18.00;16.20;;;22.10;99.90;;;;;;5046011;28;20246;-71
2021/07/27 07:21:14;;;;;;;18.00;16.10;;;22.30;99.90;;;;;;5036555;28;20250;-71
2021/07/27 07:23:42;;;;;;;21.07;18.90;;;22.60;99.90;;;;;;5038270;28;20319;-71
2021/07/27 07:26:10;;;;;;;18.10;16.33;;;22.70;99.90;;;;;;5049130;28;21279;-71
2021/07/27 07:28:38;;;;;;;22.27;20.10;;;22.90;99.90;;;;;;5043941;28;20258;-71
2021/07/27 07:31:10;;;;;;;23.83;21.33;;;22.70;99.90;;;;;;5043659;28;20607;-71
2021/07/27 07:33:40;;;;;;;22.33;20.13;;;22.50;99.90;;;;;;5040890;28;20247;-71
2021/07/27 07:36:12;;;;;;;22.90;20.60;;;22.30;99.90;;;;;;5062085;28;20592;-69
2021/07/27 07:38:41;;;;;;;23.20;21.00;;;22.00;99.90;;;;;;5045305;28;20235;-71
2021/07/27 07:41:10;;;;;;;24.20;20.97;;;21.90;99.90;;;;;;5046417;28;20322;-69
2021/07/27 07:43:38;;;;;;;23.03;20.63;;;21.90;99.90;;;;;;5045146;28;20569;-70
2021/07/27 07:46:06;;;;;;;22.23;20.00;;;21.90;99.90;;;;;;5046156;28;20243;-69
2021/07/27 07:48:35;;;;;;;22.40;19.93;;;22.00;99.90;;;;;;5047434;28;20719;-70
2021/07/27 07:51:04;;;;;;;22.93;20.63;;;22.00;99.90;;;;;;5046700;28;20588;-69
2021/07/27 07:53:33;;;;;;;23.03;20.83;;;22.00;99.90;;;;;;5046019;28;20239;-69
2021/07/27 07:56:01;;;;;;;20.47;18.43;;;22.10;99.90;;;;;;5046816;28;20730;-70
2021/07/27 07:58:29;;;;;;;22.83;20.50;;;22.40;99.90;;;;;;5035589;28;20329;-71
2021/07/27 08:00:58;;;;;;;22.93;20.63;;;22.40;99.90;;;;;;5038066;28;20978;-71
2021/07/27 08:03:26;;;;;;;21.23;19.13;;;22.70;99.90;;;;;;5038875;28;20345;-70
2021/07/27 08:05:56;;;;;;;23.10;20.80;;;23.30;99.90;;;;;;5049335;28;20235;-71
2021/07/27 08:08:26;;;;;;;22.77;20.47;;;23.90;99.90;;;;;;5042260;28;20240;-71
2021/07/27 08:10:54;;;;;;;22.97;20.63;;;24.40;99.90;;;;;;5043466;28;20709;-71
2021/07/27 08:13:22;;;;;;;21.03;18.90;;;25.00;99.90;;;;;;5041706;28;20244;-71
2021/07/27 08:15:50;;;;;;;19.73;17.93;;;25.10;99.90;;;;;;5038651;28;20655;-71
2021/07/27 08:18:26;;;;;;;20.35;17.93;;;24.90;99.90;;;;;;1842137;28;10022814;-71
2021/07/27 08:20:54;;;;;;;19.40;17.60;;;24.60;99.90;;;;;;4340744;28;10001151;-72
2021/07/27 08:23:22;;;;;;;21.87;19.90;;;24.30;99.90;;;;;;5035000;28;20742;-71
2021/07/27 08:25:52;;;;;;;19.70;17.83;;;24.40;99.90;;;;;;5036610;28;20708;-72
2021/07/27 08:31:07;;;;;;;16.97;15.37;;;25.40;99.90;;;;;;5011127;28;20704;-82
2021/07/27 08:33:35;;;;;;;16.37;14.67;;;25.60;99.90;;;;;;5019360;28;20659;-82
2021/07/27 08:36:03;;;;;;;16.03;14.23;;;25.20;99.90;;;;;;5018143;28;20246;-81
2021/07/27 08:38:34;;;;;;;16.27;13.80;;;24.80;99.90;;;;;;5035097;28;20248;-82
2021/07/27 08:41:06;;;;;;;15.17;13.57;;;24.40;99.90;;;;;;5021161;28;20245;-83
2021/07/27 08:43:34;;;;;;;14.20;12.90;;;24.30;99.90;;;;;;5025215;28;20342;-81
2021/07/27 08:46:02;;;;;;;16.03;14.47;;;24.30;99.90;;;;;;5024872;28;20254;-82
2021/07/27 08:48:31;;;;;;;14.27;12.83;;;24.30;99.90;;;;;;5018090;28;20244;-81
2021/07/27 08:50:59;;;;;;;17.00;15.27;;;24.00;99.90;;;;;;5021067;28;20247;-81
2021/07/27 08:53:27;;;;;;;17.87;15.97;;;23.40;99.90;;;;;;5024013;28;20240;-80
2021/07/27 08:55:59;;;;;;;16.73;14.63;;;22.90;99.90;;;;;;5019020;28;20293;-80
2021/07/27 08:58:28;;;;;;;19.27;17.37;;;22.70;99.90;;;;;;5017189;28;20303;-81
2021/07/27 09:00:57;;;;;;;18.10;16.30;;;22.80;99.90;;;;;;5024329;28;20322;-82
2021/07/27 09:03:25;;;;;;;17.30;15.50;;;23.00;99.90;;;;;;5022054;28;20240;-81
2021/07/27 09:06:04;;;;;;;19.17;17.23;;;23.00;99.90;;;;;;5024983;28;20235;-81
2021/07/27 09:08:32;;;;;;;18.90;16.90;;;23.20;99.90;;;;;;5018940;28;20240;-82
2021/07/27 09:11:01;;;;;;;15.60;13.83;;;23.40;99.90;;;;;;5020141;28;20684;-82
2021/07/27 09:13:34;;;;;;;15.47;13.93;;;23.60;99.90;;;;;;5023436;28;20231;-81
2021/07/27 09:16:03;;;;;;;13.80;12.40;;;23.70;99.90;;;;;;5023160;28;20239;-83
2021/07/27 09:18:32;;;;;;;14.30;11.57;;;23.90;99.90;;;;;;5020581;28;20251;-82
2021/07/27 09:21:02;;;;;;;12.30;11.10;;;23.80;99.90;;;;;;5022224;28;21015;-81
2021/07/27 09:23:30;;;;;;;13.33;12.03;;;24.00;99.90;;;;;;5028197;28;20669;-81
2021/07/27 09:26:00;;;;;;;11.43;10.17;;;24.10;99.90;;;;;;5020315;28;20313;-81
2021/07/27 09:28:29;;;;;;;13.47;12.17;;;24.20;99.90;;;;;;5021631;28;20727;-80
2021/07/27 09:31:00;;;;;;;14.67;13.27;;;24.10;99.90;;;;;;5042136;28;20250;-83
2021/07/27 09:33:30;;;;;;;14.43;13.03;;;24.00;99.90;;;;;;5040097;28;20808;-81
2021/07/27 09:35:58;;;;;;;15.10;13.50;;;24.10;99.90;;;;;;5039939;28;20260;-82
2021/07/27 09:38:29;;;;;;;15.73;14.33;;;24.30;99.90;;;;;;5040303;28;20728;-81
2021/07/27 09:41:00;;;;;;;13.03;11.83;;;24.60;99.90;;;;;;5044325;28;20270;-83
2021/07/27 09:43:44;;;;;;;12.77;11.57;;;24.90;99.90;;;;;;5028864;28;20284;-83
2021/07/27 09:46:14;;;;;;;14.50;13.00;;;25.10;99.90;;;;;;5038836;28;20590;-81
2021/07/27 09:48:46;;;;;;;14.50;13.10;;;25.20;99.90;;;;;;5041341;28;20228;-81
2021/07/27 09:51:15;;;;;;;13.30;12.10;;;25.20;99.90;;;;;;5043372;28;20260;-80
2021/07/27 09:53:45;;;;;;;14.20;12.80;;;25.20;99.90;;;;;;5042248;28;20228;-82
2021/07/27 09:56:14;;;;;;;13.70;12.30;;;25.20;99.90;;;;;;5036949;28;20244;-82
2021/07/27 09:58:43;;;;;;;13.40;12.13;;;25.20;99.90;;;;;;5042102;28;20322;-82
2021/07/27 10:01:19;;;;;;;11.13;10.03;;;25.10;99.90;;;;;;5038647;28;20310;-81
2021/07/27 10:03:52;;;;;;;12.10;10.80;;;25.30;99.90;;;;;;5041131;28;20247;-82
2021/07/27 10:06:25;;;;;;;12.53;11.23;;;25.70;99.90;;;;;;5039686;28;20688;-81
2021/07/27 10:08:58;;;;;;;13.23;11.83;;;25.70;99.90;;;;;;5044665;28;21188;-82
2021/07/27 10:11:37;;;;;;;14.23;12.07;;;25.60;99.90;;;;;;5043562;28;20307;-82
2021/07/27 10:14:08;;;;;;;11.63;10.43;;;25.60;99.90;;;;;;5047015;28;20789;-81
2021/07/27 10:16:38;;;;;;;13.60;12.27;;;25.50;99.90;;;;;;5045356;28;20743;-82
2021/07/27 10:19:20;;;;;;;12.73;11.43;;;25.10;99.90;;;;;;5046512;28;20248;-82
2021/07/27 10:22:01;;;;;;;15.57;13.97;;;24.80;99.90;;;;;;5039498;28;20253;-83
2021/07/27 10:24:36;;;;;;;14.83;12.40;;;24.50;99.90;;;;;;5044172;28;20248;-81
2021/07/27 10:27:09;;;;;;;15.97;14.00;;;24.30;99.90;;;;;;5046623;28;20243;-81
2021/07/27 10:29:38;;;;;;;13.87;12.30;;;24.20;99.90;;;;;;5049091;28;20254;-82
2021/07/27 10:32:16;;;;;;;17.80;15.20;;;23.90;99.90;;;;;;5047200;28;20656;-81
2021/07/27 10:34:45;;;;;;;15.27;13.60;;;23.60;99.90;;;;;;5048664;28;20235;-82
2021/07/27 10:37:14;;;;;;;16.13;13.43;;;23.70;99.90;;;;;;5044620;28;20251;-82
2021/07/27 10:39:50;;;;;;;15.13;12.40;;;23.80;99.90;;;;;;5042932;28;20232;-82
2021/07/27 10:42:19;;;;;;;17.03;14.50;;;24.10;99.90;;;;;;5044677;28;20569;-82
2021/07/27 10:44:49;;;;;;;15.03;13.47;;;24.30;99.90;;;;;;5039930;28;20237;-81
2021/07/27 10:47:26;;;;;;;14.63;12.97;;;24.50;99.90;;;;;;5053172;28;20250;-81
2021/07/27 10:50:03;;;;;;;15.97;12.93;;;24.60;99.90;;;;;;5042595;28;20269;-81
2021/07/27 10:52:32;;;;;;;15.10;13.50;;;24.70;99.90;;;;;;5042061;28;21182;-82
2021/07/27 10:55:02;;;;;;;14.37;12.73;;;25.00;99.90;;;;;;5045481;28;20239;-81
2021/07/27 10:57:35;;;;;;;14.23;12.47;;;25.40;99.90;;;;;;5045733;28;20265;-81
2021/07/27 11:00:04;;;;;;;15.33;13.73;;;26.10;99.90;;;;;;5041239;28;20252;-81
2021/07/27 11:02:34;;;;;;;16.67;13.10;;;26.00;99.90;;;;;;5040550;28;20316;-82
2021/07/27 11:05:03;;;;;;;15.10;13.30;;;26.00;99.90;;;;;;5045657;28;20264;-80
2021/07/27 11:07:34;;;;;;;16.23;13.87;;;26.10;99.90;;;;;;5040435;28;20241;-82
2021/07/27 11:10:05;;;;;;;14.87;12.70;;;25.90;99.90;;;;;;5041787;28;20673;-81
2021/07/27 11:12:34;;;;;;;17.60;15.20;;;25.90;99.90;;;;;;5046286;28;20672;-80
2021/07/27 11:15:10;;;;;;;17.23;14.80;;;25.90;99.90;;;;;;5041832;28;20289;-81
2021/07/27 11:17:45;;;;;;;17.63;14.80;;;25.90;99.90;;;;;;5039137;28;20251;-83
2021/07/27 11:20:15;;;;;;;16.13;14.37;;;26.00;99.90;;;;;;5040359;28;20340;-82
2021/07/27 11:22:46;;;;;;;14.53;13.03;;;26.20;99.90;;;;;;5045206;28;20250;-83
2021/07/27 11:25:17;;;;;;;17.80;15.77;;;26.50;99.90;;;;;;5041707;28;20245;-83
2021/07/27 11:27:46;;;;;;;15.50;14.00;;;26.90;99.90;;;;;;5042094;28;20236;-82
2021/07/27 11:30:14;;;;;;;16.13;14.00;;;27.30;99.90;;;;;;5046713;28;20241;-83
2021/07/27 11:32:45;;;;;;;18.77;16.83;;;27.40;99.90;;;;;;5042076;28;20797;-82
2021/07/27 11:35:16;;;;;;;16.63;14.83;;;27.20;99.90;;;;;;5038784;28;20320;-82
2021/07/27 11:37:45;;;;;;;14.70;13.20;;;26.90;99.90;;;;;;5041685;28;20269;-81
2021/07/27 11:40:24;;;;;;;15.73;14.13;;;26.60;99.90;;;;;;5042741;28;20714;-83
2021/07/27 11:43:04;;;;;;;14.90;13.30;;;26.30;99.90;;;;;;5041119;28;20261;-83
2021/07/27 11:45:33;;;;;;;14.60;13.10;;;26.50;99.90;;;;;;5039475;28;20272;-82
2021/07/27 11:48:03;;;;;;;13.50;12.10;;;26.40;99.90;;;;;;5036934;28;20622;-82
2021/07/27 11:50:33;;;;;;;15.50;13.73;;;26.50;99.90;;;;;;5049789;28;20897;-83
2021/07/27 11:53:02;;;;;;;13.90;12.50;;;26.60;99.90;;;;;;5044195;28;20243;-83
2021/07/27 11:55:32;;;;;;;13.37;12.00;;;26.40;99.90;;;;;;5042914;28;20301;-83
2021/07/27 11:58:01;;;;;;;14.57;13.07;;;26.70;99.90;;;;;;5044159;28;20617;-82
2021/07/27 12:00:31;;;;;;;14.87;13.37;;;26.90;99.90;;;;;;5045422;28;20582;-81
2021/07/27 12:02:59;;;;;;;13.53;12.13;;;26.90;99.90;;;;;;5044966;28;20677;-82
2021/07/27 12:05:31;;;;;;;12.83;11.63;;;27.00;99.90;;;;;;5046012;28;20645;-82
2021/07/27 12:07:59;;;;;;;12.27;11.07;;;27.00;99.90;;;;;;5046719;28;20247;-82
2021/07/27 12:10:27;;;;;;;13.50;12.20;;;26.90;99.90;;;;;;5059280;28;20316;-83
2021/07/27 12:12:55;;;;;;;14.03;12.70;;;26.40;99.90;;;;;;5041565;28;20285;-81
2021/07/27 12:15:24;;;;;;;12.47;11.30;;;26.30;99.90;;;;;;5048872;28;20346;-82
2021/07/27 12:17:52;;;;;;;11.63;10.47;;;26.20;99.90;;;;;;5067426;28;20291;-81
2021/07/27 12:20:20;;;;;;;11.60;10.50;;;26.20;99.90;;;;;;5061091;28;20279;-81
2021/07/27 12:22:50;;;;;;;11.50;10.23;;;26.30;99.90;;;;;;5053324;28;20284;-81
2021/07/27 12:25:18;;;;;;;13.30;12.00;;;26.40;99.90;;;;;;5045925;28;20341;-81
2021/07/27 12:27:46;;;;;;;12.90;11.60;;;26.20;99.90;;;;;;5046749;28;20285;-81
2021/07/27 12:30:15;;;;;;;11.67;10.57;;;26.40;99.90;;;;;;5047019;28;20758;-81
2021/07/27 12:32:43;;;;;;;10.97;9.87;;;26.40;99.90;;;;;;5046641;28;20238;-81
2021/07/27 12:35:13;;;;;;;12.40;11.10;;;26.50;99.90;;;;;;5047337;28;20257;-82
2021/07/27 12:37:41;;;;;;;13.00;11.63;;;26.50;99.90;;;;;;5046930;28;20239;-81
2021/07/27 12:40:12;;;;;;;12.83;11.50;;;26.40;99.90;;;;;;5044367;28;20311;-81
2021/07/27 12:42:40;;;;;;;12.57;11.27;;;26.20;99.90;;;;;;5043621;28;20239;-81
2021/07/27 12:45:09;;;;;;;13.00;11.70;;;26.50;99.90;;;;;;5045921;28;20234;-80
2021/07/27 12:47:38;;;;;;;12.23;11.10;;;26.50;99.90;;;;;;5046583;28;20288;-79
2021/07/27 12:50:07;;;;;;;12.40;11.07;;;26.60;99.90;;;;;;5046968;28;20234;-80
2021/07/27 12:52:35;;;;;;;11.77;10.57;;;26.50;99.90;;;;;;5046802;28;20253;-80
2021/07/27 12:55:04;;;;;;;13.03;11.73;;;26.70;99.90;;;;;;5047198;28;20322;-80
2021/07/27 12:57:36;;;;;;;12.20;10.97;;;26.60;99.90;;;;;;5046893;28;20241;-81
2021/07/27 13:00:06;;;;;;;11.57;10.47;;;26.60;99.90;;;;;;5046248;28;20238;-81
2021/07/27 13:02:35;;;;;;;13.47;12.17;;;26.50;99.90;;;;;;5046275;28;20242;-89
2021/07/27 13:05:05;;;;;;;11.63;10.53;;;26.60;99.90;;;;;;5047068;28;20326;-81